createdAt,value
2018-11-26T00:02:44.937Z,1.00
2018-11-26T00:05:13.983Z,1.00
2018-11-26T00:07:43.022Z,1.20
2018-11-26T01:02:37.665Z,0.70
2018-11-26T01:05:07.507Z,0.80
2018-11-26T01:07:36.576Z,0.80
2018-11-26T02:02:42.013Z,0.30
2018-11-26T02:05:11.448Z,0.40
2018-11-26T02:07:40.473Z,0.50
2018-11-26T03:02:37.568Z,-1.00
2018-11-26T03:05:08.115Z,-1.00
2018-11-26T03:07:37.210Z,-1.00
2018-11-26T04:02:36.437Z,-1.10
2018-11-26T04:05:05.722Z,-1.00
2018-11-26T04:07:34.696Z,-0.90
2018-11-26T05:02:37.156Z,-0.90
2018-11-26T05:05:06.884Z,-0.90
2018-11-26T05:07:35.979Z,-0.80
2018-11-26T06:02:38.122Z,-3.20
2018-11-26T06:05:07.365Z,-3.30
2018-11-26T06:07:36.438Z,-3.10
2018-11-26T07:02:37.670Z,-4.90
2018-11-26T07:05:11.276Z,-4.70
2018-11-26T07:07:40.328Z,-4.40
2018-11-26T08:02:38.373Z,-3.70
2018-11-26T08:05:08.517Z,-3.60
2018-11-26T08:07:37.579Z,-3.30
2018-11-26T09:02:43.730Z,-2.60
2018-11-26T09:05:24.197Z,-2.40
2018-11-26T09:07:49.066Z,-2.30
2018-11-26T10:02:38.445Z,-1.00
2018-11-26T10:05:10.588Z,-0.90
2018-11-26T10:07:39.632Z,-0.60
2018-11-26T11:02:45.979Z,-1.10
2018-11-26T11:05:15.048Z,-1.10
2018-11-26T11:07:44.073Z,-1.10
2018-11-26T12:02:39.399Z,-1.50
2018-11-26T12:05:10.511Z,-1.50
2018-11-26T12:07:39.537Z,-1.60
2018-11-26T13:02:37.935Z,-2.40
2018-11-26T13:05:09.394Z,-2.40
2018-11-26T13:07:38.522Z,-2.40
2018-11-26T14:02:35.711Z,-4.00
2018-11-26T14:05:04.926Z,-3.70
2018-11-26T14:07:33.987Z,-3.80
2018-11-26T14:10:03.085Z,-3.70
2018-11-26T15:02:39.666Z,-5.40
2018-11-26T15:05:08.780Z,-5.40
2018-11-26T15:07:37.815Z,-5.30
2018-11-26T16:02:36.663Z,-6.20
2018-11-26T16:05:06.959Z,-6.20
2018-11-26T16:07:36.034Z,-5.90
2018-11-26T17:02:40.427Z,-6.60
2018-11-26T17:05:11.470Z,-6.60
2018-11-26T17:07:40.511Z,-6.40
2018-11-26T18:02:37.577Z,-7.30
2018-11-26T18:05:09.379Z,-6.90
2018-11-26T18:07:38.455Z,-7.00
2018-11-26T19:02:37.922Z,-6.00
2018-11-26T19:05:07.854Z,-5.80
2018-11-26T19:07:37.632Z,-5.70
2018-11-26T20:02:38.171Z,-4.80
2018-11-26T20:05:10.938Z,-4.50
2018-11-26T20:07:39.984Z,-4.60
2018-11-26T21:02:43.214Z,-3.80
2018-11-26T21:05:12.295Z,-3.70
2018-11-26T21:07:41.325Z,-3.60
2018-11-26T23:02:36.025Z,-3.10
2018-11-26T23:05:05.287Z,-3.10
2018-11-26T23:07:34.278Z,-2.90
2018-11-26T23:10:03.632Z,-2.60
2018-11-26T23:12:32.619Z,-2.50
2018-11-26T23:15:01.610Z,-2.30
2018-11-26T23:17:30.712Z,-2.10
2018-11-26T23:19:59.780Z,-2.00
2018-11-26T23:22:28.779Z,-2.00
2018-11-26T23:24:57.828Z,-1.90
2018-11-26T23:27:26.836Z,-1.80
2018-11-26T23:29:55.843Z,-1.90
2018-11-26T23:32:25.131Z,-1.50
2018-11-26T23:34:54.133Z,-1.50
2018-11-26T23:37:23.159Z,-1.50
2018-11-26T23:39:52.160Z,-1.60
2018-11-26T23:42:22.048Z,-1.60
2018-11-26T23:44:51.143Z,-1.50
2018-11-26T23:47:20.134Z,-1.60
2018-11-26T23:49:49.207Z,-1.30
2018-11-26T23:52:18.282Z,-1.30
2018-11-26T23:54:47.326Z,-1.40
2018-11-26T23:57:16.371Z,-1.30
2018-11-26T23:59:45.944Z,-1.30
